Time;durP1;ratioP1;P1;durP2;ratioP2;P2;SDS_P1;SDS_P2;PMS_P1;PMS_P2;Temp;Humidity;BMP_temperature;BMP_pressure;BME280_temperature;BME280_humidity;BME280_pressure;Samples;Min_cycle;Max_cycle;Signal;HPM_P1;HPM_P2
2024/01/27 00:01:30;;;;;;;7.05;5.18;;;0.40;99.90;;;;;;502961;236;27458;-66
2024/01/27 00:03:32;;;;;;;7.22;5.28;;;0.40;99.90;;;;;;502986;236;27477;-67
2024/01/27 00:05:33;;;;;;;6.80;4.50;;;0.30;99.90;;;;;;502904;236;27364;-66
2024/01/27 00:07:34;;;;;;;7.87;5.22;;;0.30;99.90;;;;;;502923;236;27530;-67
2024/01/27 00:09:35;;;;;;;7.90;5.70;;;0.40;99.90;;;;;;502888;236;27486;-66
2024/01/27 00:11:37;;;;;;;8.20;5.30;;;0.30;99.90;;;;;;502975;236;27419;-66
2024/01/27 00:13:38;;;;;;;7.53;5.03;;;0.30;99.90;;;;;;502945;236;27569;-67
2024/01/27 00:15:39;;;;;;;7.37;4.80;;;0.30;99.90;;;;;;502886;236;27525;-67
2024/01/27 00:17:40;;;;;;;6.20;4.37;;;0.30;99.90;;;;;;502900;236;27501;-66
2024/01/27 00:19:42;;;;;;;8.73;4.43;;;0.30;99.90;;;;;;502970;234;27800;-68
2024/01/27 00:21:43;;;;;;;7.72;4.40;;;0.30;99.90;;;;;;502949;236;27362;-66
2024/01/27 00:23:44;;;;;;;7.82;4.62;;;0.30;99.90;;;;;;502930;236;27870;-66
2024/01/27 00:25:45;;;;;;;6.55;5.00;;;0.30;99.90;;;;;;502894;236;27918;-67
2024/01/27 00:27:47;;;;;;;9.00;5.32;;;0.30;99.90;;;;;;502910;236;27940;-67
2024/01/27 00:29:48;;;;;;;7.03;4.05;;;0.20;99.90;;;;;;502971;236;27892;-68
2024/01/27 00:31:50;;;;;;;5.10;3.75;;;0.20;99.90;;;;;;502914;236;27351;-67
2024/01/27 00:33:50;;;;;;;6.45;4.03;;;0.30;99.90;;;;;;502892;236;27562;-66
2024/01/27 00:35:52;;;;;;;4.93;3.42;;;0.30;99.90;;;;;;502864;236;27402;-66
2024/01/27 00:37:53;;;;;;;6.35;3.95;;;0.30;99.90;;;;;;502912;236;27517;-66
2024/01/27 00:39:54;;;;;;;10.88;4.00;;;0.40;99.90;;;;;;502938;236;27454;-67
2024/01/27 00:41:58;;;;;;;6.55;3.25;;;0.40;99.90;;;;;;502901;236;27509;-67
2024/01/27 00:43:57;;;;;;;5.72;4.00;;;0.40;99.90;;;;;;502723;236;27484;-66
2024/01/27 00:45:58;;;;;;;4.30;3.28;;;0.40;99.90;;;;;;502871;236;27451;-66
2024/01/27 00:47:59;;;;;;;7.50;3.50;;;0.30;99.90;;;;;;502966;236;27836;-66
2024/01/27 00:50:01;;;;;;;3.53;3.10;;;0.30;99.90;;;;;;502976;236;27485;-67
2024/01/27 00:52:02;;;;;;;11.63;3.30;;;0.30;99.90;;;;;;502941;236;27533;-66
2024/01/27 00:54:03;;;;;;;11.60;3.83;;;0.20;99.90;;;;;;502896;236;27484;-66
2024/01/27 00:56:04;;;;;;;5.32;3.03;;;0.20;99.90;;;;;;502952;236;27509;-66
2024/01/27 00:58:06;;;;;;;4.85;3.12;;;-0.20;99.90;;;;;;502981;236;27449;-64
2024/01/27 01:00:07;;;;;;;5.97;3.87;;;0.00;99.90;;;;;;502944;236;27505;-65
2024/01/27 01:02:08;;;;;;;6.07;3.42;;;0.00;99.90;;;;;;502958;236;27494;-65
2024/01/27 01:04:09;;;;;;;8.10;4.00;;;0.00;99.90;;;;;;502933;236;27565;-65
2024/01/27 01:06:11;;;;;;;11.38;4.53;;;0.00;99.90;;;;;;502936;236;27498;-66
2024/01/27 01:08:12;;;;;;;6.50;3.33;;;0.00;99.90;;;;;;502924;236;27439;-65
2024/01/27 01:10:13;;;;;;;6.15;3.80;;;0.00;99.90;;;;;;502884;236;27462;-65
2024/01/27 01:12:15;;;;;;;5.55;3.58;;;0.00;99.90;;;;;;502899;236;27458;-65
2024/01/27 01:14:16;;;;;;;6.15;3.80;;;0.00;99.90;;;;;;502963;236;27457;-65
2024/01/27 01:16:17;;;;;;;3.75;3.33;;;-0.10;99.90;;;;;;502918;236;27508;-65
2024/01/27 01:18:18;;;;;;;7.53;3.92;;;-0.10;99.90;;;;;;502879;236;27478;-64
2024/01/27 01:20:19;;;;;;;6.65;3.28;;;-0.10;99.90;;;;;;502908;236;27468;-65
2024/01/27 01:22:21;;;;;;;6.62;3.60;;;-0.10;99.90;;;;;;502890;236;28422;-64
2024/01/27 01:24:22;;;;;;;6.15;3.60;;;-0.10;99.90;;;;;;502942;236;28998;-65
2024/01/27 01:26:23;;;;;;;7.82;3.67;;;-0.10;99.90;;;;;;502880;236;27861;-65
2024/01/27 01:28:24;;;;;;;8.25;4.00;;;-0.10;99.90;;;;;;502901;236;27443;-64
2024/01/27 01:30:26;;;;;;;5.35;3.40;;;-0.10;99.90;;;;;;502874;236;27585;-65
2024/01/27 01:32:28;;;;;;;4.60;3.12;;;-0.20;99.90;;;;;;502941;236;27501;-66
2024/01/27 01:34:29;;;;;;;6.18;3.20;;;-0.20;99.90;;;;;;502892;236;27522;-65
2024/01/27 01:36:31;;;;;;;3.58;2.95;;;-0.30;99.90;;;;;;502954;236;27557;-64
2024/01/27 01:38:32;;;;;;;8.32;4.07;;;-0.20;99.90;;;;;;502967;236;27556;-65
2024/01/27 01:40:33;;;;;;;10.90;3.85;;;-0.20;99.90;;;;;;503018;236;27487;-65
2024/01/27 01:42:35;;;;;;;5.32;3.78;;;-0.10;99.90;;;;;;502998;236;27533;-65
2024/01/27 01:44:36;;;;;;;12.85;3.92;;;-0.20;99.90;;;;;;503000;236;27563;-64
2024/01/27 01:46:37;;;;;;;7.75;3.45;;;-0.10;99.90;;;;;;502948;236;27401;-65
2024/01/27 01:48:38;;;;;;;5.43;3.50;;;-0.20;99.90;;;;;;502996;236;27930;-65
2024/01/27 01:50:40;;;;;;;6.18;3.35;;;-0.20;99.90;;;;;;502974;236;27953;-65
2024/01/27 01:52:41;;;;;;;6.10;3.45;;;-0.20;99.90;;;;;;502976;236;28880;-64
2024/01/27 01:54:42;;;;;;;5.07;3.35;;;-0.20;99.90;;;;;;502992;236;27506;-65
2024/01/27 01:56:43;;;;;;;7.50;3.75;;;-0.30;99.90;;;;;;502955;236;27471;-64
2024/01/27 01:58:45;;;;;;;8.35;3.72;;;-0.40;99.90;;;;;;502978;236;27547;-64
2024/01/27 02:00:46;;;;;;;6.93;3.90;;;-0.40;99.90;;;;;;502966;236;27479;-65
2024/01/27 02:02:47;;;;;;;3.75;3.30;;;-0.30;99.90;;;;;;502977;236;27435;-64
2024/01/27 02:04:48;;;;;;;7.53;3.40;;;-0.30;99.90;;;;;;503001;236;27390;-64
2024/01/27 02:06:50;;;;;;;7.30;3.20;;;-0.20;99.90;;;;;;502939;236;27509;-66
2024/01/27 02:08:51;;;;;;;13.23;3.50;;;-0.30;99.90;;;;;;502974;236;27891;-64
2024/01/27 02:10:52;;;;;;;9.55;3.05;;;-0.30;99.90;;;;;;502936;236;27980;-64
2024/01/27 02:12:53;;;;;;;7.93;2.95;;;-0.20;99.90;;;;;;502971;236;28071;-66
2024/01/27 02:14:55;;;;;;;7.85;3.97;;;-0.20;99.90;;;;;;502951;234;27350;-65
2024/01/27 02:16:56;;;;;;;26.48;4.05;;;-0.20;99.90;;;;;;502957;236;27513;-64
2024/01/27 02:18:57;;;;;;;8.27;3.67;;;-0.10;99.90;;;;;;502920;236;27510;-64
2024/01/27 02:20:58;;;;;;;8.95;3.95;;;-0.10;99.90;;;;;;502917;236;27499;-64
2024/01/27 02:23:03;;;;;;;6.55;3.53;;;-0.20;99.90;;;;;;502951;236;27414;-66
2024/01/27 02:25:01;;;;;;;6.15;3.53;;;-0.20;99.90;;;;;;502794;236;27917;-64
2024/01/27 02:27:02;;;;;;;8.55;2.97;;;-0.20;99.90;;;;;;502942;236;27962;-65
2024/01/27 02:29:03;;;;;;;6.45;2.50;;;-0.20;99.90;;;;;;502922;236;28658;-64
2024/01/27 02:31:05;;;;;;;5.93;3.20;;;-0.30;99.90;;;;;;502995;236;27359;-64
2024/01/27 02:33:06;;;;;;;6.30;2.97;;;-0.20;99.90;;;;;;502975;236;27385;-65
2024/01/27 02:35:08;;;;;;;4.95;3.30;;;-0.40;99.90;;;;;;502902;236;27532;-64
2024/01/27 02:37:08;;;;;;;8.18;3.10;;;-0.40;99.90;;;;;;502966;236;27482;-65
2024/01/27 02:39:10;;;;;;;9.05;3.28;;;-0.50;99.90;;;;;;502993;236;27517;-65
2024/01/27 02:41:11;;;;;;;8.27;3.55;;;-0.50;99.90;;;;;;502973;236;27358;-64
2024/01/27 02:43:12;;;;;;;6.35;3.30;;;-0.50;99.90;;;;;;502915;236;27592;-65
2024/01/27 02:45:13;;;;;;;7.10;3.50;;;-0.50;99.90;;;;;;502900;236;27923;-64
2024/01/27 02:47:15;;;;;;;5.37;3.45;;;-0.50;99.90;;;;;;502931;236;27993;-65
2024/01/27 02:49:16;;;;;;;3.58;3.12;;;-0.60;99.90;;;;;;502986;236;27954;-66
2024/01/27 02:51:17;;;;;;;5.90;3.35;;;-0.50;99.90;;;;;;502946;236;27439;-64
2024/01/27 02:53:18;;;;;;;4.47;2.85;;;-0.50;99.90;;;;;;502924;236;27394;-65
2024/01/27 02:55:20;;;;;;;5.05;3.42;;;-0.50;99.90;;;;;;502842;236;27446;-65
2024/01/27 02:57:21;;;;;;;8.63;3.60;;;-0.50;99.90;;;;;;502809;236;27363;-64
2024/01/27 02:59:22;;;;;;;7.18;3.30;;;-0.50;99.90;;;;;;502735;236;27383;-64
2024/01/27 03:01:24;;;;;;;5.20;3.20;;;-0.50;99.90;;;;;;502779;236;27359;-64
2024/01/27 03:03:25;;;;;;;5.07;3.20;;;-0.50;99.90;;;;;;502389;236;27880;-65
2024/01/27 03:05:26;;;;;;;5.93;3.53;;;-0.60;99.90;;;;;;502269;236;28390;-65
2024/01/27 03:07:27;;;;;;;6.15;3.30;;;-0.70;99.90;;;;;;502692;236;29022;-64
2024/01/27 03:09:28;;;;;;;5.97;3.05;;;-0.60;99.90;;;;;;502787;236;27956;-65
2024/01/27 03:11:30;;;;;;;5.85;3.20;;;-0.60;99.90;;;;;;502922;236;27342;-65
2024/01/27 03:13:31;;;;;;;13.05;3.75;;;-0.60;99.90;;;;;;502852;236;27490;-65
2024/01/27 03:15:33;;;;;;;6.10;3.55;;;-0.60;99.90;;;;;;502891;236;27485;-65
2024/01/27 03:17:33;;;;;;;9.55;3.85;;;-0.50;99.90;;;;;;502919;236;27547;-65
2024/01/27 03:19:35;;;;;;;17.20;3.62;;;-0.60;99.90;;;;;;502906;236;27589;-64
2024/01/27 03:21:36;;;;;;;5.80;2.97;;;-0.50;99.90;;;;;;502906;236;27526;-65
2024/01/27 03:23:37;;;;;;;9.82;3.50;;;-0.50;99.90;;;;;;502946;236;27951;-64
2024/01/27 03:25:38;;;;;;;4.30;3.70;;;-0.60;99.90;;;;;;502906;236;27989;-65
2024/01/27 03:27:40;;;;;;;9.82;3.72;;;-0.50;99.90;;;;;;502927;236;27912;-64
2024/01/27 03:29:41;;;;;;;7.18;3.45;;;-0.50;99.90;;;;;;502937;236;27425;-65
2024/01/27 03:31:42;;;;;;;11.77;3.45;;;-0.50;99.90;;;;;;502898;236;27569;-64
2024/01/27 03:33:44;;;;;;;15.07;4.50;;;-0.50;99.90;;;;;;502961;236;27460;-65
2024/01/27 03:35:45;;;;;;;11.23;3.08;;;-0.50;99.90;;;;;;502893;236;27576;-65
2024/01/27 03:37:46;;;;;;;7.37;3.67;;;-0.50;99.90;;;;;;502927;236;27502;-65
2024/01/27 03:39:47;;;;;;;7.90;3.45;;;-0.50;99.90;;;;;;502910;236;27505;-65
2024/01/27 03:41:49;;;;;;;5.95;3.15;;;-0.50;99.90;;;;;;502959;234;27866;-66
2024/01/27 03:43:50;;;;;;;6.25;3.40;;;-0.60;99.90;;;;;;502980;236;27892;-64
2024/01/27 03:45:51;;;;;;;4.80;2.95;;;-0.60;99.90;;;;;;502845;236;28005;-65
2024/01/27 03:47:52;;;;;;;5.70;3.47;;;-0.60;99.90;;;;;;502890;236;27437;-64
2024/01/27 03:49:54;;;;;;;6.35;3.15;;;-0.80;99.90;;;;;;502905;236;27543;-64
2024/01/27 03:51:55;;;;;;;9.30;3.25;;;-0.80;99.90;;;;;;502932;236;27514;-66
2024/01/27 03:53:56;;;;;;;4.62;3.28;;;-0.80;99.90;;;;;;502946;236;27477;-65
2024/01/27 03:56:04;;;;;;;9.75;3.53;;;-0.80;99.90;;;;;;502883;236;27465;-65
2024/01/27 03:58:05;;;;;;;5.32;2.70;;;-0.80;99.90;;;;;;502961;236;28047;-68
2024/01/27 04:00:06;;;;;;;5.87;3.30;;;-0.80;99.90;;;;;;502932;236;27374;-66
2024/01/27 04:02:07;;;;;;;5.90;3.28;;;-0.80;99.90;;;;;;502937;236;27479;-67
2024/01/27 04:04:09;;;;;;;3.50;2.92;;;-0.80;99.90;;;;;;502908;236;27385;-67
2024/01/27 04:06:10;;;;;;;10.27;4.37;;;-0.90;99.90;;;;;;502891;236;27455;-67
2024/01/27 04:08:11;;;;;;;10.75;3.17;;;-0.90;99.90;;;;;;502962;236;27494;-67
2024/01/27 04:10:12;;;;;;;11.35;3.30;;;-0.90;99.90;;;;;;502932;236;27522;-66
2024/01/27 04:12:14;;;;;;;4.80;3.03;;;-0.90;99.90;;;;;;502927;236;27951;-67
2024/01/27 04:14:15;;;;;;;6.97;3.78;;;-0.90;99.90;;;;;;502907;236;28653;-66
2024/01/27 04:16:16;;;;;;;5.15;3.10;;;-0.90;99.90;;;;;;502912;236;27806;-66
2024/01/27 04:18:17;;;;;;;6.07;3.35;;;-0.90;99.90;;;;;;502912;236;27382;-66
2024/01/27 04:20:19;;;;;;;6.80;3.40;;;-1.00;99.90;;;;;;502916;236;27406;-66
2024/01/27 04:22:20;;;;;;;5.47;3.60;;;-0.90;99.90;;;;;;502948;236;27474;-66
2024/01/27 04:24:21;;;;;;;6.12;3.15;;;-0.90;99.90;;;;;;502994;236;27636;-67
2024/01/27 04:26:22;;;;;;;8.35;3.12;;;-0.80;99.90;;;;;;502892;236;27391;-67
2024/01/27 04:28:24;;;;;;;3.85;2.83;;;-0.80;99.90;;;;;;502939;236;27550;-67
2024/01/27 04:30:25;;;;;;;8.32;3.28;;;-0.80;99.90;;;;;;502959;236;27439;-67
2024/01/27 04:32:26;;;;;;;8.05;3.35;;;-0.90;99.90;;;;;;502724;236;27954;-67
2024/01/27 04:34:27;;;;;;;8.48;3.40;;;-0.90;99.90;;;;;;502989;236;27890;-68
2024/01/27 04:36:32;;;;;;;5.20;2.90;;;-1.00;99.90;;;;;;502935;236;27968;-66
2024/01/27 04:38:33;;;;;;;4.37;3.35;;;-1.00;99.90;;;;;;502952;236;27939;-66
2024/01/27 04:40:35;;;;;;;7.50;3.25;;;-1.00;99.90;;;;;;502894;236;27537;-66
2024/01/27 04:42:35;;;;;;;6.03;3.50;;;-1.00;99.90;;;;;;502947;236;27414;-68
2024/01/27 04:44:37;;;;;;;6.68;3.37;;;-1.00;99.90;;;;;;502960;236;27453;-66
2024/01/27 04:46:38;;;;;;;10.70;3.42;;;-1.00;99.90;;;;;;502754;236;27475;-67
2024/01/27 04:48:39;;;;;;;6.28;3.30;;;-1.00;99.90;;;;;;502778;236;27584;-66
2024/01/27 04:50:40;;;;;;;6.50;3.00;;;-1.10;99.90;;;;;;502944;236;27485;-64
2024/01/27 04:52:42;;;;;;;5.32;2.72;;;-1.00;99.90;;;;;;502967;236;27415;-65
2024/01/27 04:54:43;;;;;;;7.72;3.22;;;-1.10;99.90;;;;;;502942;236;27434;-64
2024/01/27 04:56:44;;;;;;;7.15;2.80;;;-1.10;99.90;;;;;;502817;236;27387;-64
2024/01/27 04:58:45;;;;;;;8.13;2.90;;;-1.10;99.90;;;;;;502960;236;27525;-64
2024/01/27 05:00:47;;;;;;;6.90;3.17;;;-1.10;99.90;;;;;;502993;236;27351;-64
2024/01/27 05:02:48;;;;;;;3.08;2.78;;;-1.20;99.90;;;;;;502993;236;27552;-64
2024/01/27 05:04:49;;;;;;;4.70;2.87;;;-1.10;99.90;;;;;;502951;236;28060;-64
2024/01/27 05:06:50;;;;;;;5.20;3.35;;;-1.10;99.90;;;;;;502858;236;29127;-66
2024/01/27 05:08:52;;;;;;;6.22;3.47;;;-1.20;99.90;;;;;;502978;236;27523;-68
2024/01/27 05:10:53;;;;;;;7.80;2.90;;;-1.20;99.90;;;;;;502990;236;27493;-66
2024/01/27 05:12:56;;;;;;;7.25;3.60;;;-1.20;99.90;;;;;;502978;236;27529;-67
2024/01/27 05:14:55;;;;;;;6.45;3.65;;;-1.20;99.90;;;;;;502849;236;27474;-68
2024/01/27 05:16:57;;;;;;;10.38;4.00;;;-1.10;99.90;;;;;;502892;236;27487;-67
2024/01/27 05:18:58;;;;;;;7.80;3.35;;;-1.10;99.90;;;;;;502977;236;27517;-67
2024/01/27 05:20:59;;;;;;;7.72;3.25;;;-1.10;99.90;;;;;;502974;236;27584;-66
2024/01/27 05:23:00;;;;;;;8.20;3.53;;;-1.20;99.90;;;;;;502957;236;27973;-66
2024/01/27 05:25:02;;;;;;;6.78;3.12;;;-1.20;99.90;;;;;;502868;236;28675;-66
2024/01/27 05:27:03;;;;;;;6.47;3.15;;;-1.20;99.90;;;;;;502982;236;27902;-66
2024/01/27 05:29:04;;;;;;;11.43;3.25;;;-1.20;99.90;;;;;;502984;236;27383;-67
2024/01/27 05:31:05;;;;;;;10.07;3.35;;;-1.20;99.90;;;;;;502975;236;27450;-66
2024/01/27 05:33:07;;;;;;;3.72;3.05;;;-1.20;99.90;;;;;;502909;236;27569;-67
2024/01/27 05:35:09;;;;;;;9.50;3.62;;;-1.20;99.90;;;;;;502870;236;27525;-66
2024/01/27 05:37:09;;;;;;;5.15;3.03;;;-1.30;99.90;;;;;;502926;236;27549;-67
2024/01/27 05:39:10;;;;;;;5.32;2.90;;;-1.30;99.90;;;;;;502968;236;27529;-67
2024/01/27 05:41:12;;;;;;;11.23;3.70;;;-1.30;99.90;;;;;;502932;236;27536;-66
2024/01/27 05:43:13;;;;;;;10.63;3.35;;;-1.30;99.90;;;;;;502921;236;27931;-67
2024/01/27 05:45:14;;;;;;;7.40;3.40;;;-1.30;99.90;;;;;;502838;236;28049;-67
2024/01/27 05:47:15;;;;;;;6.85;3.25;;;-1.20;99.90;;;;;;502942;236;27494;-66
2024/01/27 05:49:17;;;;;;;3.45;2.90;;;-1.20;99.90;;;;;;502955;236;27591;-67
2024/01/27 05:51:18;;;;;;;5.40;2.95;;;-1.20;99.90;;;;;;502936;236;27470;-67
2024/01/27 05:53:19;;;;;;;8.27;2.97;;;-1.30;99.90;;;;;;502806;236;27476;-66
2024/01/27 05:55:21;;;;;;;5.10;2.50;;;-1.30;99.90;;;;;;502894;236;27573;-66
2024/01/27 05:57:22;;;;;;;10.13;3.35;;;-1.20;99.90;;;;;;502944;236;27446;-66
2024/01/27 05:59:23;;;;;;;3.45;2.75;;;-1.30;99.90;;;;;;502940;236;27557;-66
2024/01/27 06:01:24;;;;;;;5.78;2.90;;;-1.40;99.90;;;;;;502912;236;28726;-66
2024/01/27 06:03:26;;;;;;;6.95;3.95;;;-1.30;99.90;;;;;;502851;236;27909;-66
2024/01/27 06:05:27;;;;;;;5.40;3.20;;;-1.30;99.90;;;;;;502912;236;27988;-67
2024/01/27 06:07:28;;;;;;;8.02;3.72;;;-1.30;99.90;;;;;;502946;236;27431;-66
2024/01/27 06:09:29;;;;;;;10.75;3.60;;;-1.40;99.90;;;;;;502921;236;27399;-66
2024/01/27 06:11:31;;;;;;;5.93;2.83;;;-1.40;99.90;;;;;;502988;236;27382;-67
2024/01/27 06:13:37;;;;;;;6.03;3.28;;;-1.30;99.90;;;;;;502965;233;27454;-66
2024/01/27 06:15:33;;;;;;;4.87;2.75;;;-1.30;99.90;;;;;;502597;236;27478;-67
2024/01/27 06:17:34;;;;;;;9.40;3.12;;;-1.30;99.90;;;;;;502944;236;27434;-66
2024/01/27 06:19:36;;;;;;;10.32;3.50;;;-1.30;99.90;;;;;;502966;236;27351;-66
2024/01/27 06:21:37;;;;;;;6.50;3.10;;;-1.40;99.90;;;;;;502984;236;27982;-66
2024/01/27 06:23:38;;;;;;;5.43;2.80;;;-1.50;99.90;;;;;;502811;236;28991;-66
2024/01/27 06:25:40;;;;;;;6.78;3.08;;;-1.60;99.90;;;;;;502850;236;27569;-67
2024/01/27 06:27:44;;;;;;;8.82;3.50;;;-1.70;99.90;;;;;;502935;236;27466;-67
2024/01/27 06:29:45;;;;;;;6.87;3.53;;;-1.60;99.90;;;;;;502970;236;29266;-67
2024/01/27 06:31:46;;;;;;;8.55;4.05;;;-1.70;99.90;;;;;;502943;236;27454;-66
2024/01/27 06:33:48;;;;;;;8.45;4.20;;;-1.60;99.90;;;;;;502958;236;27506;-67
2024/01/27 06:35:49;;;;;;;19.90;4.65;;;-1.50;99.90;;;;;;502861;236;27482;-66
2024/01/27 06:37:50;;;;;;;10.05;4.68;;;-1.50;99.90;;;;;;502879;236;27490;-66
2024/01/27 06:39:51;;;;;;;8.55;4.70;;;-1.50;99.90;;;;;;502967;236;27490;-67
2024/01/27 06:41:52;;;;;;;11.32;4.60;;;-1.50;99.90;;;;;;502925;236;27358;-67
2024/01/27 06:43:54;;;;;;;9.80;3.53;;;-1.50;99.90;;;;;;502907;236;27945;-67
2024/01/27 06:45:57;;;;;;;11.30;4.53;;;-1.50;99.90;;;;;;502873;236;28678;-66
2024/01/27 06:47:56;;;;;;;8.15;3.85;;;-1.60;99.90;;;;;;502913;236;27922;-67
2024/01/27 06:49:57;;;;;;;9.65;4.53;;;-1.60;99.90;;;;;;502959;236;27477;-67
2024/01/27 06:51:59;;;;;;;6.97;4.05;;;-1.60;99.90;;;;;;502901;236;27475;-66
2024/01/27 06:54:00;;;;;;;9.77;4.80;;;-1.60;99.90;;;;;;502933;236;27409;-66
2024/01/27 06:56:01;;;;;;;8.00;4.15;;;-1.60;99.90;;;;;;502944;236;27498;-67
2024/01/27 06:58:02;;;;;;;5.47;3.60;;;-1.60;99.90;;;;;;502947;234;27582;-67
2024/01/27 07:00:04;;;;;;;11.98;4.10;;;-1.60;99.90;;;;;;502931;236;28477;-67
2024/01/27 07:02:05;;;;;;;5.05;3.37;;;-1.50;99.90;;;;;;502926;236;29136;-67
2024/01/27 07:04:06;;;;;;;4.87;3.15;;;-1.50;99.90;;;;;;502953;236;29014;-66
2024/01/27 07:06:07;;;;;;;7.28;4.45;;;-1.60;99.90;;;;;;502933;236;27475;-67
2024/01/27 07:08:09;;;;;;;5.47;3.80;;;-1.60;99.90;;;;;;502792;236;27475;-66
2024/01/27 07:10:10;;;;;;;6.15;4.47;;;-1.60;99.90;;;;;;502883;236;27497;-66
2024/01/27 07:12:11;;;;;;;8.73;3.25;;;-1.50;99.90;;;;;;502913;236;27460;-66
2024/01/27 07:14:13;;;;;;;10.52;3.95;;;-1.60;99.90;;;;;;502897;236;27575;-66
2024/01/27 07:16:14;;;;;;;8.43;3.55;;;-1.60;99.90;;;;;;502879;236;27506;-67
2024/01/27 07:18:17;;;;;;;6.70;4.00;;;-1.50;99.90;;;;;;502911;236;28047;-66
2024/01/27 07:20:16;;;;;;;6.82;3.87;;;-1.40;99.90;;;;;;502879;236;27929;-66
2024/01/27 07:22:18;;;;;;;5.35;3.72;;;-1.40;99.90;;;;;;502935;236;27413;-67
2024/01/27 07:24:19;;;;;;;5.85;3.33;;;-1.40;99.90;;;;;;502812;236;27503;-66
2024/01/27 07:26:20;;;;;;;7.12;4.03;;;-1.50;99.90;;;;;;502851;236;27544;-67
2024/01/27 07:28:21;;;;;;;5.05;3.40;;;-1.50;99.90;;;;;;502924;236;27440;-66
2024/01/27 07:30:23;;;;;;;9.63;3.72;;;-1.50;99.90;;;;;;502962;236;27375;-66
2024/01/27 07:32:26;;;;;;;7.87;3.70;;;-1.50;99.90;;;;;;502951;236;27390;-67
2024/01/27 07:34:25;;;;;;;10.45;3.65;;;-1.50;99.90;;;;;;502882;236;27422;-66
2024/01/27 07:36:30;;;;;;;9.50;3.75;;;-1.40;99.90;;;;;;502893;236;27984;-67
2024/01/27 07:38:28;;;;;;;14.30;3.97;;;-1.40;99.90;;;;;;502628;236;28672;-67
2024/01/27 07:40:29;;;;;;;5.20;3.55;;;-1.40;99.90;;;;;;502968;236;27977;-66
2024/01/27 07:42:30;;;;;;;5.97;3.80;;;-1.30;99.90;;;;;;502964;236;27514;-67
2024/01/27 07:44:31;;;;;;;7.57;3.90;;;-1.40;99.90;;;;;;502923;236;27360;-66
2024/01/27 07:46:33;;;;;;;9.07;4.95;;;-1.40;99.90;;;;;;502888;236;27482;-67
2024/01/27 07:48:34;;;;;;;9.23;4.15;;;-1.30;99.90;;;;;;502954;236;27470;-66
2024/01/27 07:50:35;;;;;;;12.43;4.25;;;-1.30;99.90;;;;;;502935;236;27359;-66
2024/01/27 07:52:36;;;;;;;7.87;4.37;;;-1.30;99.90;;;;;;502922;236;27394;-67
2024/01/27 07:54:39;;;;;;;8.95;3.95;;;-1.40;99.90;;;;;;502924;236;27450;-66
2024/01/27 07:56:39;;;;;;;5.68;4.03;;;-1.40;99.90;;;;;;502650;236;28091;-67
2024/01/27 07:58:40;;;;;;;5.12;3.42;;;-1.40;99.90;;;;;;502925;236;27870;-67
2024/01/27 08:00:41;;;;;;;12.55;3.92;;;-1.40;99.90;;;;;;502937;236;29065;-67
2024/01/27 08:02:43;;;;;;;8.38;3.60;;;-1.50;99.90;;;;;;502894;236;27457;-67
2024/01/27 08:04:44;;;;;;;11.52;4.25;;;-1.30;99.90;;;;;;502890;236;27525;-66
2024/01/27 08:06:45;;;;;;;9.43;4.20;;;-1.30;99.90;;;;;;502909;236;27339;-67
2024/01/27 08:08:46;;;;;;;9.57;5.32;;;-1.20;99.90;;;;;;502945;236;27561;-67
2024/01/27 08:10:48;;;;;;;20.70;11.70;;;-1.10;99.90;;;;;;502936;236;27354;-66
2024/01/27 08:12:49;;;;;;;30.90;13.10;;;-1.10;99.90;;;;;;502895;236;27406;-67
2024/01/27 08:14:50;;;;;;;21.10;11.68;;;-1.00;99.90;;;;;;502927;236;28112;-66
2024/01/27 08:16:52;;;;;;;25.98;12.77;;;-1.10;99.90;;;;;;502914;236;27350;-66
2024/01/27 08:18:53;;;;;;;34.50;15.10;;;-1.00;99.90;;;;;;502915;236;27394;-67
2024/01/27 08:20:54;;;;;;;22.05;11.48;;;-1.00;99.90;;;;;;502929;236;27359;-66
2024/01/27 08:22:55;;;;;;;24.63;10.82;;;-0.90;99.90;;;;;;502896;236;27498;-67
2024/01/27 08:24:56;;;;;;;22.30;9.35;;;-0.80;99.90;;;;;;502890;236;27416;-67
2024/01/27 08:26:58;;;;;;;14.98;8.07;;;-0.80;99.90;;;;;;502929;236;27899;-66
2024/01/27 08:28:59;;;;;;;15.52;7.65;;;-0.80;99.90;;;;;;502850;236;28112;-66
2024/01/27 08:31:01;;;;;;;13.75;6.32;;;-0.80;99.90;;;;;;502904;236;27418;-66
2024/01/27 08:33:01;;;;;;;8.27;6.35;;;-0.70;99.90;;;;;;502922;236;27354;-67
2024/01/27 08:35:03;;;;;;;11.93;6.20;;;-0.80;99.90;;;;;;502910;236;27573;-67
2024/01/27 08:37:04;;;;;;;9.73;6.82;;;-0.80;99.90;;;;;;502923;236;27346;-67
2024/01/27 08:39:07;;;;;;;7.97;6.03;;;-0.70;99.90;;;;;;502933;236;27478;-67
2024/01/27 08:41:06;;;;;;;8.32;5.57;;;-0.60;99.90;;;;;;502852;236;27813;-67
2024/01/27 08:43:09;;;;;;;13.57;6.47;;;-0.50;99.90;;;;;;502935;236;27426;-67
2024/01/27 08:45:09;;;;;;;10.57;6.50;;;-0.50;99.90;;;;;;502832;236;27975;-67
2024/01/27 08:47:10;;;;;;;12.98;5.65;;;-0.40;99.90;;;;;;502887;236;27905;-67
2024/01/27 08:49:12;;;;;;;10.75;4.62;;;-0.30;99.90;;;;;;502910;236;27500;-66
2024/01/27 08:51:13;;;;;;;10.38;4.57;;;-0.10;99.90;;;;;;502957;236;27461;-68
2024/01/27 08:53:14;;;;;;;8.98;4.70;;;-0.20;99.90;;;;;;502925;236;27359;-66
2024/01/27 08:55:18;;;;;;;7.55;4.78;;;-0.10;99.90;;;;;;502876;236;27565;-67
2024/01/27 08:57:17;;;;;;;13.80;4.72;;;-0.10;99.90;;;;;;502770;236;27457;-66
2024/01/27 08:59:18;;;;;;;13.85;4.22;;;0.00;99.90;;;;;;502949;236;27339;-67
2024/01/27 09:01:19;;;;;;;10.07;4.32;;;0.00;99.90;;;;;;502939;236;27409;-68
2024/01/27 09:03:20;;;;;;;9.50;4.10;;;0.00;99.90;;;;;;502858;236;27410;-66
2024/01/27 09:05:22;;;;;;;15.43;4.50;;;0.10;99.90;;;;;;502877;236;27591;-67
2024/01/27 09:07:23;;;;;;;10.98;5.00;;;0.20;99.90;;;;;;502924;236;27757;-68
2024/01/27 09:09:24;;;;;;;10.13;4.47;;;0.30;99.90;;;;;;502985;236;27537;-67
2024/01/27 09:11:29;;;;;;;10.73;4.40;;;0.30;99.90;;;;;;502981;236;27504;-68
2024/01/27 09:13:27;;;;;;;8.20;4.03;;;0.30;99.90;;;;;;502813;236;27443;-67
2024/01/27 09:15:28;;;;;;;7.15;4.30;;;0.40;99.90;;;;;;502848;236;27502;-67
2024/01/27 09:17:29;;;;;;;10.63;4.32;;;0.40;99.90;;;;;;503016;236;27430;-67
2024/01/27 09:19:30;;;;;;;5.87;4.45;;;0.40;99.90;;;;;;502985;236;27520;-66
2024/01/27 09:21:32;;;;;;;10.32;6.12;;;0.50;99.90;;;;;;502963;236;27577;-67
2024/01/27 09:23:33;;;;;;;9.07;6.87;;;0.50;99.90;;;;;;502958;236;27538;-67
2024/01/27 09:25:34;;;;;;;11.10;7.40;;;0.40;99.90;;;;;;502854;236;27388;-67
2024/01/27 09:27:36;;;;;;;14.48;7.60;;;0.60;99.90;;;;;;502942;236;28004;-67
2024/01/27 09:29:37;;;;;;;18.25;8.13;;;0.80;99.90;;;;;;502925;236;27875;-67
2024/01/27 09:31:38;;;;;;;13.25;7.12;;;0.90;99.90;;;;;;502869;234;27962;-67
2024/01/27 09:33:39;;;;;;;13.80;8.50;;;1.00;99.90;;;;;;502891;236;27491;-66
2024/01/27 09:35:40;;;;;;;40.70;21.30;;;1.10;99.90;;;;;;502852;236;27418;-66
2024/01/27 09:37:43;;;;;;;21.87;14.85;;;1.20;99.90;;;;;;502899;236;27382;-67
2024/01/27 09:39:43;;;;;;;19.12;12.07;;;1.30;99.90;;;;;;502855;236;27518;-66
2024/01/27 09:41:44;;;;;;;20.90;12.55;;;1.40;99.90;;;;;;502786;236;27512;-68
2024/01/27 09:43:46;;;;;;;17.92;10.80;;;1.40;99.90;;;;;;502955;236;27422;-67
2024/01/27 09:45:47;;;;;;;17.33;10.25;;;1.40;99.90;;;;;;502840;236;27991;-67
2024/01/27 09:47:48;;;;;;;21.02;11.48;;;1.40;99.90;;;;;;502918;236;28027;-67
2024/01/27 09:49:49;;;;;;;13.35;9.60;;;1.40;99.90;;;;;;502922;236;27470;-67
2024/01/27 09:51:51;;;;;;;18.08;8.88;;;1.40;99.90;;;;;;502929;236;27580;-66
2024/01/27 09:53:52;;;;;;;12.30;7.05;;;1.50;99.90;;;;;;502811;236;27390;-68
2024/01/27 09:55:53;;;;;;;13.02;6.70;;;1.60;99.90;;;;;;502901;236;27441;-67
2024/01/27 09:57:54;;;;;;;15.63;7.80;;;1.70;99.90;;;;;;502926;236;27437;-68
2024/01/27 09:59:55;;;;;;;11.85;7.15;;;1.80;99.90;;;;;;502943;236;27529;-67
2024/01/27 10:01:57;;;;;;;12.82;7.95;;;1.80;99.90;;;;;;502805;236;27473;-67
2024/01/27 10:03:58;;;;;;;12.20;7.30;;;1.80;99.90;;;;;;502932;233;28076;-67
2024/01/27 10:05:59;;;;;;;14.02;7.62;;;1.90;99.90;;;;;;502756;236;29269;-67
2024/01/27 10:08:01;;;;;;;14.25;7.40;;;1.90;99.90;;;;;;502860;236;27482;-67
2024/01/27 10:10:02;;;;;;;13.18;6.70;;;1.90;99.90;;;;;;502963;236;27603;-73
2024/01/27 10:12:03;;;;;;;10.23;6.65;;;2.00;99.90;;;;;;502944;236;27459;-73
2024/01/27 10:14:04;;;;;;;19.65;7.68;;;2.10;99.90;;;;;;502921;236;27553;-74
2024/01/27 10:16:06;;;;;;;11.27;6.82;;;2.10;99.90;;;;;;502902;233;27541;-73
2024/01/27 10:18:07;;;;;;;13.10;7.00;;;2.30;99.90;;;;;;502837;234;27397;-73
2024/01/27 10:20:09;;;;;;;16.20;7.30;;;2.30;99.90;;;;;;502904;236;27742;-73
2024/01/27 10:22:09;;;;;;;15.27;7.20;;;2.40;99.90;;;;;;502795;236;27403;-73
2024/01/27 10:24:11;;;;;;;12.57;6.40;;;2.40;99.90;;;;;;502969;236;27862;-73
2024/01/27 10:26:12;;;;;;;10.20;6.47;;;2.50;99.90;;;;;;502870;236;29002;-73
2024/01/27 10:28:13;;;;;;;20.60;7.60;;;2.50;99.90;;;;;;502918;236;27355;-73
2024/01/27 10:30:14;;;;;;;19.05;8.00;;;2.60;99.90;;;;;;502951;236;27495;-73